Harmony, CA

2:24 AM PDT on September 21, 2014 (GMT -0700)
Will, Decker Ranch | Change Station
CLOSE
Current Station
Personal Weather Station
Location: Cambria, CA
Elevation: 508 ft
Nearby Weather Stations

Elev 508 ft 35.53 °N, 121.05 °W | Updated 2 minutes ago

Mostly Cloudy
Mostly Cloudy
60.2 °F
Feels Like 60.2 °F
N
0.0
Wind Variable Wind from WNW
Gusts 0.0 mph

Today
High -- | Low -- °F
--% Chance of Precip.
Yesterday
High -- | Low -- °F
Precip. -- in
6:51 AM 7:02 PM
Waning Crescent, 7% visible
Pressure 29.92 in
Visibility 10.0 miles
Clouds Clear
Dew Point 59 °F
Humidity 95%
Rainfall 0.00 in
Snow Depth Not available.
UV 0 out of 12
Pollen 6.20 out of 12
Air Quality Not available.
Flu Activity Not available.
METAR KPRB 210853Z AUTO 18005KT 10SM CLR 16/13 A2994 RMK AO2 SLP132 T01560128 58004 TSNO $

More Conditions Fewer Conditions

Pressure 29.92 in
Visibility 10.0 miles
Clouds Clear
Dew Point 59 °F
Humidity 95%
Rainfall 0.00 in
Snow Depth Not available.
UV 0 out of 12
Pollen 6.20 out of 12
Air Quality Not available.
Flu Activity Not available.
METAR KPRB 210853Z AUTO 18005KT 10SM CLR 16/13 A2994 RMK AO2 SLP132 T01560128 58004 TSNO $

More Conditions Fewer Conditions

10-Day Weather Forecast

Almanac

Astronomy

Sep. 21, 2014 Rise Set
Actual Time 6:51 AM PDT 7:02 PM PDT
Civil Twilight 6:26 AM PDT 7:27 PM PDT
Nautical Twilight 5:56 AM PDT 7:57 PM PDT
Astronomical Twilight 5:26 AM PDT 8:27 PM PDT
Moon 4:33 AM PDT 5:38 PM PDT
Length of Visible Light 13h 01m
Length of Day
12h 10m
Tomorrow will be 2m 14s shorter.
Waning Crescent, 7% of the Moon is Illuminated
Today
Waning Crescent
Sep 24
New
Oct 1
First Quarter
Oct 8
Full
Oct 15
Last Quarter

Today's Extremes

State Highs State Lows

Community

WunderPhotos

Upload Photos

1,755,106 photos uploaded!

Nearby

Snow Depth

Station Depth Elevation
Leavitt Meadows 1 in 7200 ft
Ebbetts Pass 0 in 8700 ft
Leavitt Lake 2 in 9400 ft
Adin Mountain 0 in 6200 ft
Summit Meadow 1 in 9122 ft

Earthquake Activity

City Distance Mag. Time & Date
Corcoran, California 87 miles 2.9 3:59 PM PDT
2014-09-18
Minimum magnitude displayed is 2.5.

Coastal Water Temperatures

Place Temperature
No Stations Reporting

Nearby Weather Stations